Time;durP1;ratioP1;P1;durP2;ratioP2;P2;SDS_P1;SDS_P2;PMS_P1;PMS_P2;Temp;Humidity;BMP_temperature;BMP_pressure;BME280_temperature;BME280_humidity;BME280_pressure;Samples;Min_cycle;Max_cycle;Signal;HPM_P1;HPM_P2
2021/10/18 00:04:36;;;;;;;2.63;1.60;;;6.90;99.90;;;;;;10261889;28;20063;-92
2021/10/18 00:09:39;;;;;;;2.35;1.15;;;6.80;99.90;;;;;;10336761;28;20070;-92
2021/10/18 00:14:42;;;;;;;3.70;1.27;;;6.70;99.90;;;;;;10303383;28;20141;-92
2021/10/18 00:19:45;;;;;;;3.92;1.00;;;6.70;99.90;;;;;;10340247;28;20066;-92
2021/10/18 00:24:48;;;;;;;4.15;1.33;;;6.50;99.90;;;;;;10273734;28;20057;-92
2021/10/18 00:30:10;;;;;;;4.95;1.67;;;6.50;99.90;;;;;;10109915;28;20129;-94
2021/10/18 00:36:08;;;;;;;4.70;1.40;;;6.40;99.90;;;;;;10141479;28;20069;-94
2021/10/18 00:41:28;;;;;;;3.00;1.38;;;6.50;99.90;;;;;;10191029;28;20056;-93
2021/10/18 00:46:31;;;;;;;2.90;1.10;;;6.40;99.90;;;;;;10241967;28;20508;-92
2021/10/18 00:51:53;;;;;;;4.03;1.00;;;6.50;99.90;;;;;;10096805;28;20058;-93
2021/10/18 00:57:17;;;;;;;10.50;1.58;;;6.30;99.90;;;;;;10126720;28;20800;-93
2021/10/18 01:02:53;;;;;;;4.57;1.33;;;6.40;99.90;;;;;;10162029;28;20054;-93
2021/10/18 01:08:10;;;;;;;10.15;2.38;;;6.40;99.90;;;;;;10281746;28;20070;-94
2021/10/18 01:13:27;;;;;;;5.93;1.90;;;6.30;99.90;;;;;;10346924;28;20057;-93
2021/10/18 01:18:31;;;;;;;6.25;1.85;;;6.20;99.90;;;;;;10283518;28;20092;-93
2021/10/18 01:23:41;;;;;;;6.65;2.10;;;6.10;99.90;;;;;;10345096;28;20121;-93
2021/10/18 01:28:44;;;;;;;4.88;1.48;;;6.10;99.90;;;;;;10330177;28;20069;-92
2021/10/18 01:33:47;;;;;;;5.30;1.52;;;6.10;99.90;;;;;;10359538;28;20041;-92
2021/10/18 01:38:49;;;;;;;7.07;1.90;;;6.10;99.90;;;;;;10326597;28;20082;-92
2021/10/18 01:43:51;;;;;;;4.88;1.75;;;6.00;99.90;;;;;;10243862;28;20065;-92
2021/10/18 01:48:53;;;;;;;3.63;0.80;;;6.00;99.90;;;;;;10354668;28;20045;-92
2021/10/18 01:53:55;;;;;;;4.15;1.20;;;5.90;99.90;;;;;;10336314;28;20063;-91
2021/10/18 01:58:57;;;;;;;4.07;1.05;;;5.90;99.90;;;;;;10334172;28;20060;-91
2021/10/18 02:04:03;;;;;;;6.32;1.45;;;5.90;99.90;;;;;;10367402;28;20050;-91
2021/10/18 02:09:05;;;;;;;2.33;1.05;;;5.90;99.90;;;;;;10313798;28;20136;-91
2021/10/18 02:14:07;;;;;;;3.42;1.15;;;5.90;99.90;;;;;;10396073;28;20049;-92
2021/10/18 02:19:10;;;;;;;3.15;1.20;;;5.90;99.90;;;;;;10378720;28;20053;-92
2021/10/18 02:24:12;;;;;;;5.38;1.20;;;5.90;99.90;;;;;;10385955;28;20049;-92
2021/10/18 02:29:14;;;;;;;5.53;1.42;;;5.90;99.90;;;;;;10359026;28;20488;-91
2021/10/18 02:34:16;;;;;;;4.18;1.63;;;6.00;99.90;;;;;;10385253;28;20054;-92
2021/10/18 02:39:18;;;;;;;5.85;1.30;;;6.00;99.90;;;;;;10351961;28;20049;-92
2021/10/18 02:44:20;;;;;;;3.85;1.88;;;6.20;99.90;;;;;;10379992;28;20049;-92
2021/10/18 02:49:22;;;;;;;6.88;1.42;;;6.20;99.90;;;;;;10353699;28;20439;-92
2021/10/18 02:54:26;;;;;;;6.03;1.80;;;6.30;99.90;;;;;;10363848;28;20405;-92
2021/10/18 02:59:28;;;;;;;8.45;2.20;;;6.40;99.90;;;;;;10389756;28;20058;-92
2021/10/18 03:04:30;;;;;;;5.50;1.48;;;6.50;99.90;;;;;;10359090;28;20057;-92
2021/10/18 03:09:32;;;;;;;7.63;1.42;;;6.50;99.90;;;;;;10383427;28;20084;-93
2021/10/18 03:14:34;;;;;;;8.27;2.47;;;6.60;99.90;;;;;;10384683;28;20057;-92
2021/10/18 03:19:35;;;;;;;7.60;2.50;;;6.60;99.90;;;;;;10360546;28;20085;-92
2021/10/18 03:24:38;;;;;;;10.00;3.20;;;6.70;99.90;;;;;;10382363;28;20057;-92
2021/10/18 03:29:39;;;;;;;13.40;2.75;;;6.70;99.90;;;;;;10384503;28;20081;-92
2021/10/18 03:34:41;;;;;;;11.73;2.10;;;6.80;99.90;;;;;;10372837;28;20474;-92
2021/10/18 03:39:44;;;;;;;16.33;3.40;;;6.80;99.90;;;;;;10373201;28;20098;-92
2021/10/18 03:44:47;;;;;;;15.60;4.35;;;6.90;99.90;;;;;;10377110;28;20080;-93
2021/10/18 03:49:49;;;;;;;33.42;5.70;;;6.80;99.90;;;;;;10341302;28;20140;-93
2021/10/18 03:54:51;;;;;;;32.83;6.63;;;6.90;99.90;;;;;;10349874;28;20111;-93
2021/10/18 03:59:53;;;;;;;28.23;5.70;;;6.90;99.90;;;;;;10414310;28;20073;-93
2021/10/18 04:04:55;;;;;;;32.83;6.60;;;6.90;99.90;;;;;;10375798;28;20421;-93
2021/10/18 04:10:04;;;;;;;38.38;7.88;;;7.00;99.90;;;;;;10396330;28;20056;-92
2021/10/18 04:15:07;;;;;;;29.23;7.45;;;7.00;99.90;;;;;;10390775;28;20060;-92
2021/10/18 04:20:09;;;;;;;28.02;7.43;;;7.20;99.90;;;;;;10403936;28;20049;-92
2021/10/18 04:25:11;;;;;;;42.65;8.40;;;7.20;99.90;;;;;;10350067;28;20508;-93
2021/10/18 04:30:14;;;;;;;48.15;6.88;;;7.30;99.90;;;;;;10387569;28;20149;-92
2021/10/18 04:35:16;;;;;;;36.00;6.85;;;7.30;99.90;;;;;;10367220;28;20050;-93
2021/10/18 04:40:39;;;;;;;43.35;8.05;;;7.30;99.90;;;;;;10349739;28;20051;-93
2021/10/18 04:45:41;;;;;;;63.20;9.82;;;7.30;99.90;;;;;;10371680;28;20058;-91
2021/10/18 04:50:48;;;;;;;51.58;8.65;;;7.30;99.90;;;;;;10366017;28;20046;-93
2021/10/18 04:55:50;;;;;;;50.08;9.13;;;7.30;99.90;;;;;;10360366;28;20065;-92
2021/10/18 05:00:57;;;;;;;59.45;10.85;;;7.40;99.90;;;;;;10358391;28;20057;-93
2021/10/18 05:05:59;;;;;;;58.30;10.18;;;7.40;99.90;;;;;;10374095;28;20068;-91
2021/10/18 05:11:04;;;;;;;64.63;9.52;;;7.50;99.90;;;;;;10374778;28;20132;-91
2021/10/18 05:16:07;;;;;;;66.85;12.25;;;7.50;99.90;;;;;;10367869;28;20577;-92
2021/10/18 05:21:10;;;;;;;67.25;10.15;;;7.50;99.90;;;;;;10359936;28;20141;-92
2021/10/18 05:26:12;;;;;;;85.72;10.70;;;7.50;99.90;;;;;;10382791;28;20088;-92
2021/10/18 05:31:33;;;;;;;81.03;10.23;;;7.40;99.90;;;;;;10379116;28;20065;-91
2021/10/18 05:36:36;;;;;;;66.72;9.77;;;7.50;99.90;;;;;;10385237;28;20087;-93
2021/10/18 05:42:07;;;;;;;71.50;10.50;;;7.60;99.90;;;;;;10314170;28;20081;-92
2021/10/18 05:47:09;;;;;;;58.90;10.23;;;7.60;99.90;;;;;;10344786;28;20110;-92
2021/10/18 05:52:43;;;;;;;65.82;12.55;;;7.70;99.90;;;;;;10360178;28;21076;-93
2021/10/18 05:58:30;;;;;;;54.22;10.15;;;7.80;99.90;;;;;;9921688;28;20111;-94
2021/10/18 06:05:03;;;;;;;65.72;11.10;;;7.80;99.90;;;;;;9844087;28;20052;-93
2021/10/18 06:10:35;;;;;;;71.43;11.27;;;7.90;99.90;;;;;;9945687;28;20536;-93
2021/10/18 06:16:02;;;;;;;72.78;14.23;;;8.00;99.90;;;;;;10043487;28;20086;-94
2021/10/18 06:22:00;;;;;;;59.67;10.87;;;8.10;99.90;;;;;;9872511;28;20052;-93
2021/10/18 06:28:05;;;;;;;61.08;11.25;;;8.10;99.90;;;;;;9797805;29;20285;-93
2021/10/18 06:33:07;;;;;;;64.43;11.23;;;8.20;99.90;;;;;;10122401;28;20050;-93
2021/10/18 06:38:18;;;;;;;109.25;12.30;;;8.20;99.90;;;;;;10327729;28;20065;-90
2021/10/18 06:43:21;;;;;;;67.57;12.25;;;8.10;99.90;;;;;;10374134;28;20501;-91
2021/10/18 06:48:37;;;;;;;77.00;11.35;;;8.20;99.90;;;;;;10333569;28;20045;-89
2021/10/18 06:53:39;;;;;;;80.78;11.45;;;8.20;99.90;;;;;;10375400;28;20129;-89
2021/10/18 06:58:44;;;;;;;69.55;13.93;;;8.10;99.90;;;;;;10188233;28;20057;-91
2021/10/18 07:03:49;;;;;;;65.93;14.13;;;8.20;99.90;;;;;;10156566;28;20522;-92
2021/10/18 07:08:51;;;;;;;67.88;11.20;;;8.20;99.90;;;;;;10298734;28;20060;-84
2021/10/18 07:13:53;;;;;;;67.05;13.35;;;8.20;99.90;;;;;;10334130;28;20049;-84
2021/10/18 07:18:55;;;;;;;60.13;12.35;;;8.40;99.90;;;;;;10353499;28;20054;-84
2021/10/18 07:24:02;;;;;;;69.63;13.30;;;8.40;99.90;;;;;;10354173;28;27945;-84
2021/10/18 07:29:04;;;;;;;72.35;12.98;;;8.40;99.90;;;;;;10384519;28;20057;-90
2021/10/18 07:34:12;;;;;;;65.80;12.70;;;8.60;99.90;;;;;;10336321;28;20181;-91
2021/10/18 07:39:25;;;;;;;69.15;13.25;;;8.70;99.90;;;;;;10300426;28;20461;-91
2021/10/18 07:44:28;;;;;;;60.00;12.13;;;8.70;99.90;;;;;;10264794;28;20368;-91
2021/10/18 07:49:35;;;;;;;73.00;13.68;;;8.70;99.90;;;;;;10287593;28;20079;-91
2021/10/18 07:54:36;;;;;;;58.03;13.07;;;8.80;99.90;;;;;;10257017;28;20058;-89
2021/10/18 07:59:38;;;;;;;79.55;14.20;;;8.90;99.90;;;;;;10330476;28;20045;-89
2021/10/18 08:04:44;;;;;;;64.20;13.98;;;8.90;99.90;;;;;;10386093;28;20473;-88
2021/10/18 08:09:46;;;;;;;66.60;14.43;;;9.00;99.90;;;;;;10356425;28;20144;-88
2021/10/18 08:14:48;;;;;;;74.85;14.80;;;9.20;99.90;;;;;;10343229;28;20053;-88
2021/10/18 08:19:50;;;;;;;62.70;12.15;;;9.20;99.90;;;;;;10356813;28;20488;-89
2021/10/18 08:24:52;;;;;;;57.20;12.50;;;9.20;99.90;;;;;;10364015;28;20427;-88
2021/10/18 08:29:54;;;;;;;61.42;14.23;;;9.20;99.90;;;;;;10358057;28;20509;-88
2021/10/18 08:34:56;;;;;;;63.97;13.82;;;9.40;99.90;;;;;;10347566;28;20392;-88
2021/10/18 08:40:04;;;;;;;61.53;13.32;;;9.30;99.90;;;;;;10330583;28;20049;-88
2021/10/18 08:45:06;;;;;;;63.55;13.00;;;9.20;99.90;;;;;;10388985;28;20057;-88
2021/10/18 08:50:08;;;;;;;58.53;13.05;;;9.30;99.90;;;;;;10378674;28;20053;-88
2021/10/18 08:55:11;;;;;;;65.43;13.52;;;9.40;99.90;;;;;;10358563;28;20048;-88
2021/10/18 09:00:36;;;;;;;45.78;12.82;;;9.60;99.90;;;;;;10343020;28;20054;-88
2021/10/18 09:05:38;;;;;;;56.10;13.55;;;9.70;99.90;;;;;;10320993;28;20034;-89
2021/10/18 09:10:59;;;;;;;54.40;13.98;;;9.80;99.90;;;;;;10331137;28;20054;-88
2021/10/18 09:16:02;;;;;;;57.85;12.73;;;9.80;99.90;;;;;;10352793;28;20069;-88
2021/10/18 09:21:04;;;;;;;45.13;11.23;;;10.00;99.90;;;;;;10330158;28;20054;-89
2021/10/18 09:26:13;;;;;;;60.17;14.07;;;10.30;99.90;;;;;;10333507;28;20050;-88
2021/10/18 09:31:16;;;;;;;48.35;11.82;;;10.30;99.90;;;;;;10313584;28;20141;-88
2021/10/18 09:36:23;;;;;;;48.33;12.80;;;10.50;99.90;;;;;;10326773;28;20510;-88
2021/10/18 09:41:25;;;;;;;39.75;12.38;;;10.60;99.90;;;;;;10324980;28;20386;-88
2021/10/18 09:46:46;;;;;;;45.10;13.65;;;10.50;99.90;;;;;;10345566;28;20054;-88
2021/10/18 10:56:59;;;;;;;30.23;10.98;;;11.10;99.90;;;;;;10366466;28;20140;-88
2021/10/18 11:02:02;;;;;;;30.92;11.40;;;11.40;99.90;;;;;;10369226;28;20692;-89
2021/10/18 11:07:16;;;;;;;25.00;11.43;;;11.10;99.90;;;;;;10349135;28;20049;-88
2021/10/18 11:12:29;;;;;;;28.55;11.88;;;11.20;99.90;;;;;;10320259;28;20053;-88
2021/10/18 11:17:33;;;;;;;35.25;12.13;;;11.30;99.90;;;;;;10346720;28;20038;-88
2021/10/18 11:22:41;;;;;;;31.33;11.13;;;11.30;99.90;;;;;;10322455;28;20076;-88
2021/10/18 11:27:48;;;;;;;23.85;9.93;;;11.30;99.90;;;;;;10324739;28;20133;-88
2021/10/18 11:33:02;;;;;;;23.95;9.57;;;11.40;99.90;;;;;;10331966;28;20109;-88
2021/10/18 11:38:12;;;;;;;27.40;10.43;;;11.40;99.90;;;;;;10335155;28;20057;-88
2021/10/18 11:43:21;;;;;;;30.50;10.75;;;11.40;99.90;;;;;;10303709;28;20511;-88
2021/10/18 11:48:25;;;;;;;26.80;10.32;;;11.30;99.90;;;;;;10336506;28;20050;-89
2021/10/18 11:53:31;;;;;;;28.33;10.75;;;11.10;99.90;;;;;;10335260;28;20054;-88
2021/10/18 11:58:38;;;;;;;26.20;11.20;;;11.20;99.90;;;;;;10338563;28;20493;-88
2021/10/18 12:03:39;;;;;;;28.03;11.47;;;11.20;99.90;;;;;;10320452;28;20068;-88
2021/10/18 12:08:47;;;;;;;25.90;11.18;;;11.20;99.90;;;;;;10355479;28;20054;-88
2021/10/18 12:13:49;;;;;;;32.72;13.10;;;11.10;99.90;;;;;;10331017;28;20043;-88
2021/10/18 12:18:58;;;;;;;24.95;11.15;;;11.30;99.90;;;;;;10334081;28;20616;-88
2021/10/18 12:24:11;;;;;;;25.98;10.68;;;11.30;99.90;;;;;;10335157;28;20054;-88
2021/10/18 12:29:16;;;;;;;26.83;10.95;;;11.20;99.90;;;;;;10333790;28;20507;-88
2021/10/18 12:34:23;;;;;;;27.25;11.70;;;11.20;99.90;;;;;;10331619;28;20520;-88
2021/10/18 12:39:32;;;;;;;33.28;13.18;;;11.30;99.90;;;;;;10346646;28;20077;-88
2021/10/18 12:44:37;;;;;;;30.23;11.18;;;11.20;99.90;;;;;;10369345;28;20057;-88
2021/10/18 12:49:38;;;;;;;32.03;11.23;;;11.20;99.90;;;;;;10334954;28;20054;-88
2021/10/18 12:54:43;;;;;;;28.63;12.75;;;11.20;99.90;;;;;;10352900;28;20065;-88
2021/10/18 13:00:09;;;;;;;27.73;12.02;;;11.20;99.90;;;;;;10344956;28;20076;-88
2021/10/18 13:05:16;;;;;;;30.48;12.13;;;11.20;99.90;;;;;;10329923;28;20487;-89
2021/10/18 13:10:20;;;;;;;28.55;11.90;;;11.30;99.90;;;;;;10346430;28;20080;-88
2021/10/18 13:15:22;;;;;;;30.33;11.80;;;11.30;99.90;;;;;;10314014;28;20066;-88
2021/10/18 13:20:25;;;;;;;31.88;11.68;;;11.50;99.90;;;;;;10333089;28;20403;-88
2021/10/18 13:25:30;;;;;;;31.65;11.57;;;11.40;99.90;;;;;;10330188;28;20044;-88
2021/10/18 13:30:32;;;;;;;30.98;12.10;;;11.50;99.90;;;;;;10341525;28;20045;-88
2021/10/18 13:35:34;;;;;;;33.10;12.90;;;11.60;99.90;;;;;;10348239;28;20054;-88
2021/10/18 13:40:36;;;;;;;28.23;10.73;;;11.50;99.90;;;;;;10347508;28;20049;-88
2021/10/18 13:45:38;;;;;;;27.40;11.38;;;11.50;99.90;;;;;;10348934;28;20064;-88
2021/10/18 13:50:40;;;;;;;27.65;10.98;;;11.40;99.90;;;;;;10334017;28;20053;-88
2021/10/18 13:55:42;;;;;;;25.40;10.10;;;11.50;99.90;;;;;;10344978;28;20060;-88
2021/10/18 14:00:44;;;;;;;28.45;10.35;;;11.50;99.90;;;;;;10354077;28;20057;-88
2021/10/18 14:05:46;;;;;;;23.98;9.73;;;11.60;99.90;;;;;;10344311;28;20567;-88
2021/10/18 14:10:48;;;;;;;24.33;10.25;;;11.70;99.90;;;;;;10346633;28;20049;-88
2021/10/18 14:15:50;;;;;;;21.98;9.93;;;11.60;99.90;;;;;;10350502;28;20516;-88
2021/10/18 14:20:52;;;;;;;19.50;9.10;;;11.70;99.90;;;;;;10362402;28;20050;-88
2021/10/18 14:25:54;;;;;;;21.30;8.77;;;11.50;99.90;;;;;;10360711;28;20137;-88
2021/10/18 14:30:55;;;;;;;25.63;10.45;;;11.60;99.90;;;;;;10384637;28;20488;-88
2021/10/18 14:35:59;;;;;;;25.48;10.13;;;11.70;99.90;;;;;;10351659;28;20052;-88
2021/10/18 14:41:00;;;;;;;23.02;8.90;;;11.70;99.90;;;;;;10359506;28;20052;-88
2021/10/18 14:46:02;;;;;;;23.27;9.13;;;11.70;99.90;;;;;;10381496;28;20061;-88
2021/10/18 14:51:04;;;;;;;22.40;8.45;;;11.70;99.90;;;;;;10377334;28;20044;-88
2021/10/18 14:56:06;;;;;;;25.20;9.85;;;11.70;99.90;;;;;;10339974;28;20046;-88
2021/10/18 15:01:10;;;;;;;23.95;10.02;;;11.70;99.90;;;;;;10390579;28;20138;-88
2021/10/18 15:06:13;;;;;;;24.08;10.18;;;11.70;99.90;;;;;;10377950;28;20463;-88
2021/10/18 15:11:15;;;;;;;26.25;10.35;;;11.70;99.90;;;;;;10355885;28;20038;-87
2021/10/18 15:16:16;;;;;;;26.70;9.75;;;11.60;99.90;;;;;;10356766;28;20061;-88
2021/10/18 15:21:18;;;;;;;23.75;10.32;;;11.50;99.90;;;;;;10380256;28;20846;-88
2021/10/18 15:26:21;;;;;;;26.05;10.13;;;11.50;99.90;;;;;;10399969;28;20451;-89
2021/10/18 15:31:23;;;;;;;22.27;9.82;;;11.50;99.90;;;;;;10389144;28;20144;-88
2021/10/18 15:36:26;;;;;;;28.10;10.40;;;11.40;99.90;;;;;;10364994;28;20053;-89
2021/10/18 15:41:31;;;;;;;23.83;10.13;;;11.50;99.90;;;;;;10372527;28;20073;-88
2021/10/18 15:46:34;;;;;;;25.42;9.90;;;11.40;99.90;;;;;;10372443;28;20064;-88
2021/10/18 15:51:36;;;;;;;28.48;10.15;;;11.20;99.90;;;;;;10369016;28;20041;-88
2021/10/18 15:56:38;;;;;;;28.00;12.43;;;11.10;99.90;;;;;;10357630;28;20046;-88
2021/10/18 16:01:41;;;;;;;28.38;11.18;;;11.00;99.90;;;;;;10357444;28;20072;-88
2021/10/18 16:06:43;;;;;;;23.83;10.20;;;11.00;99.90;;;;;;10389481;28;20139;-88
2021/10/18 16:11:45;;;;;;;24.42;10.20;;;11.00;99.90;;;;;;10398760;28;20053;-88
2021/10/18 16:16:47;;;;;;;27.75;11.57;;;10.90;99.90;;;;;;10376025;28;20053;-88
2021/10/18 16:21:48;;;;;;;23.13;9.88;;;10.90;99.90;;;;;;10373149;28;20053;-88
2021/10/18 16:26:50;;;;;;;25.88;10.68;;;10.80;99.90;;;;;;10377847;28;20057;-87
2021/10/18 16:31:53;;;;;;;26.58;10.30;;;10.70;99.90;;;;;;10379464;28;20056;-88
2021/10/18 16:36:55;;;;;;;24.38;10.40;;;10.60;99.90;;;;;;10386129;28;20080;-88
2021/10/18 16:41:57;;;;;;;28.23;11.32;;;10.70;99.90;;;;;;10343725;28;20066;-88
2021/10/18 16:47:05;;;;;;;26.15;11.05;;;10.60;99.90;;;;;;10395780;28;20374;-88
2021/10/18 16:52:07;;;;;;;28.02;11.93;;;10.60;99.90;;;;;;10370064;28;20051;-87
2021/10/18 16:57:09;;;;;;;30.77;11.88;;;10.60;99.90;;;;;;10376867;28;20050;-88
2021/10/18 17:02:11;;;;;;;31.83;10.95;;;10.50;99.90;;;;;;10390292;28;20053;-88
2021/10/18 17:07:13;;;;;;;26.95;11.70;;;10.40;99.90;;;;;;10383929;28;20558;-88
2021/10/18 17:12:15;;;;;;;25.05;11.30;;;10.30;99.90;;;;;;10397810;28;20054;-88
2021/10/18 17:17:18;;;;;;;33.15;13.85;;;10.20;99.90;;;;;;10390347;28;20072;-88
2021/10/18 17:22:20;;;;;;;32.20;11.07;;;10.00;99.90;;;;;;10372334;28;20049;-88
2021/10/18 17:27:22;;;;;;;30.38;11.65;;;9.90;99.90;;;;;;10348644;28;20073;-88
2021/10/18 17:32:24;;;;;;;32.88;12.30;;;9.80;99.90;;;;;;10370476;28;20046;-88
2021/10/18 17:37:25;;;;;;;30.85;13.68;;;9.70;99.90;;;;;;10354765;28;20480;-88
2021/10/18 17:42:27;;;;;;;30.70;13.88;;;9.60;99.90;;;;;;10378134;28;20053;-88
2021/10/18 17:47:31;;;;;;;32.75;13.27;;;9.50;99.90;;;;;;10418938;28;20041;-88
2021/10/18 17:52:32;;;;;;;33.45;12.18;;;9.40;99.90;;;;;;10409020;28;20037;-88
2021/10/18 17:57:34;;;;;;;34.25;15.45;;;9.40;99.90;;;;;;10406986;28;20052;-88
2021/10/18 18:02:36;;;;;;;35.05;16.13;;;9.30;99.90;;;;;;10437012;28;20088;-88
2021/10/18 18:07:38;;;;;;;40.42;15.65;;;9.30;99.90;;;;;;10419822;28;20041;-88
2021/10/18 18:12:40;;;;;;;33.22;13.10;;;9.20;99.90;;;;;;10417008;28;20097;-88
2021/10/18 18:17:42;;;;;;;37.25;14.05;;;9.10;99.90;;;;;;10404439;28;20080;-88
2021/10/18 18:22:44;;;;;;;32.63;13.40;;;9.10;99.90;;;;;;10401145;28;20055;-88
2021/10/18 18:27:49;;;;;;;33.58;15.00;;;9.00;99.90;;;;;;10422202;28;20101;-88
2021/10/18 18:32:53;;;;;;;30.60;13.43;;;9.00;99.90;;;;;;10406000;28;20065;-88
2021/10/18 18:37:55;;;;;;;35.47;12.95;;;9.00;99.90;;;;;;10362241;28;20049;-89
2021/10/18 18:42:58;;;;;;;29.35;12.77;;;8.90;99.90;;;;;;10416368;28;20048;-88
2021/10/18 18:48:00;;;;;;;33.30;14.40;;;8.90;99.90;;;;;;10380089;28;20046;-89
2021/10/18 18:53:02;;;;;;;36.78;14.73;;;8.90;99.90;;;;;;10370294;28;20057;-88
2021/10/18 18:58:04;;;;;;;33.42;15.68;;;8.80;99.90;;;;;;10368634;28;20492;-89
2021/10/18 19:03:06;;;;;;;42.92;14.60;;;8.70;99.90;;;;;;10367576;28;20097;-88
2021/10/18 19:08:08;;;;;;;33.53;13.32;;;8.70;99.90;;;;;;10335175;28;20128;-88
2021/10/18 19:13:13;;;;;;;29.48;13.35;;;8.60;99.90;;;;;;10359331;28;20102;-88
2021/10/18 19:18:15;;;;;;;27.70;12.27;;;8.60;99.90;;;;;;10349533;28;20052;-88
2021/10/18 19:23:17;;;;;;;31.55;12.93;;;8.60;99.90;;;;;;10327903;28;20419;-88
2021/10/18 19:28:18;;;;;;;34.13;12.60;;;8.50;99.90;;;;;;10352060;28;20089;-88
2021/10/18 19:33:21;;;;;;;26.63;11.52;;;8.40;99.90;;;;;;10354525;28;20544;-88
2021/10/18 19:38:23;;;;;;;28.48;11.80;;;8.30;99.90;;;;;;10330193;28;20058;-88
2021/10/18 19:43:25;;;;;;;31.42;12.48;;;8.30;99.90;;;;;;10368538;28;20100;-88
2021/10/18 19:48:28;;;;;;;26.38;11.48;;;8.20;99.90;;;;;;10357820;28;20088;-88
2021/10/18 19:53:33;;;;;;;25.58;11.48;;;8.10;99.90;;;;;;10368920;28;20045;-88
2021/10/18 19:58:35;;;;;;;28.65;12.52;;;8.10;99.90;;;;;;10373305;28;20056;-88
2021/10/18 20:03:41;;;;;;;31.98;10.82;;;8.00;99.90;;;;;;10347037;28;20049;-88
2021/10/18 20:08:44;;;;;;;27.73;11.63;;;8.00;99.90;;;;;;10349795;28;20104;-89
2021/10/18 20:13:45;;;;;;;32.47;11.10;;;7.90;99.90;;;;;;10352497;28;20060;-89
2021/10/18 20:18:47;;;;;;;30.13;12.75;;;7.90;99.90;;;;;;10353660;28;20048;-89
2021/10/18 20:23:49;;;;;;;30.05;12.30;;;7.80;99.90;;;;;;10338600;28;20038;-88
2021/10/18 20:28:51;;;;;;;32.45;10.95;;;7.70;99.90;;;;;;10358873;28;20105;-90
2021/10/18 20:33:55;;;;;;;30.67;12.68;;;7.70;99.90;;;;;;10340373;28;20052;-89
2021/10/18 20:38:57;;;;;;;25.02;10.45;;;7.70;99.90;;;;;;10337948;28;20053;-90
2021/10/18 20:43:59;;;;;;;22.77;10.90;;;7.60;99.90;;;;;;10365858;28;20046;-89
2021/10/18 20:49:01;;;;;;;23.92;10.63;;;7.50;99.90;;;;;;10347285;28;20042;-88
2021/10/18 20:54:05;;;;;;;28.75;11.38;;;7.50;99.90;;;;;;10338471;28;20062;-88
2021/10/18 20:59:08;;;;;;;25.73;11.18;;;7.40;99.90;;;;;;10345271;28;20116;-89
2021/10/18 21:04:11;;;;;;;22.17;10.00;;;7.30;99.90;;;;;;10334057;28;20042;-89
2021/10/18 21:09:15;;;;;;;28.75;10.75;;;7.30;99.90;;;;;;10346857;28;20060;-89
2021/10/18 21:14:16;;;;;;;29.40;11.07;;;7.30;99.90;;;;;;10360041;28;20080;-89
2021/10/18 21:19:18;;;;;;;21.05;10.10;;;7.20;99.90;;;;;;10319592;28;20056;-89
2021/10/18 21:24:21;;;;;;;20.73;8.52;;;7.00;99.90;;;;;;10324240;28;20053;-89
2021/10/18 21:29:23;;;;;;;23.50;9.98;;;7.10;99.90;;;;;;10338866;28;20056;-88
2021/10/18 21:34:25;;;;;;;24.73;9.88;;;7.10;99.90;;;;;;10323214;28;20132;-89
2021/10/18 21:39:27;;;;;;;23.58;10.07;;;7.00;99.90;;;;;;10319201;28;20076;-89
2021/10/18 21:44:29;;;;;;;23.40;9.25;;;6.80;99.90;;;;;;10341253;28;20053;-89
2021/10/18 21:49:36;;;;;;;23.08;9.10;;;6.90;99.90;;;;;;10347183;28;20054;-89
2021/10/18 21:54:38;;;;;;;23.33;8.40;;;6.90;99.90;;;;;;10311277;28;20073;-89
2021/10/18 21:59:40;;;;;;;24.13;9.65;;;6.80;99.90;;;;;;10350849;28;20077;-89
2021/10/18 22:04:41;;;;;;;22.02;8.88;;;6.90;99.90;;;;;;10375455;28;20058;-89
2021/10/18 22:09:47;;;;;;;23.52;9.70;;;6.80;99.90;;;;;;10360874;28;20057;-89
2021/10/18 22:14:49;;;;;;;31.92;9.07;;;6.70;99.90;;;;;;10356774;28;20049;-89
2021/10/18 22:19:50;;;;;;;23.05;8.18;;;6.70;99.90;;;;;;10366004;28;20518;-89
2021/10/18 22:24:52;;;;;;;23.40;10.70;;;6.70;99.90;;;;;;10369329;28;20064;-90
2021/10/18 22:29:54;;;;;;;21.40;8.57;;;6.70;99.90;;;;;;10348580;28;20136;-87
2021/10/18 22:34:56;;;;;;;21.08;8.40;;;6.70;99.90;;;;;;10383131;28;20067;-87
2021/10/18 22:39:58;;;;;;;22.30;9.32;;;6.70;99.90;;;;;;10377561;28;20076;-87
2021/10/18 22:44:59;;;;;;;19.85;7.97;;;6.70;99.90;;;;;;10366145;28;20068;-90
2021/10/18 22:50:02;;;;;;;18.48;7.93;;;6.70;99.90;;;;;;10349511;28;20050;-88
2021/10/18 22:55:05;;;;;;;24.08;8.32;;;6.70;99.90;;;;;;10357165;28;20108;-88
2021/10/18 23:00:07;;;;;;;20.38;7.82;;;6.70;99.90;;;;;;10356833;28;20120;-88
2021/10/18 23:05:09;;;;;;;24.52;8.23;;;6.80;99.90;;;;;;10376130;28;20053;-88
2021/10/18 23:10:11;;;;;;;19.98;8.57;;;6.70;99.90;;;;;;10377295;28;20065;-88
2021/10/18 23:15:13;;;;;;;24.20;9.43;;;6.70;99.90;;;;;;10359926;28;20041;-88
2021/10/18 23:20:15;;;;;;;20.70;8.07;;;6.70;99.90;;;;;;10336441;28;20049;-88
2021/10/18 23:25:27;;;;;;;20.27;8.10;;;6.70;99.90;;;;;;10381586;28;20049;-89
2021/10/18 23:30:29;;;;;;;21.88;8.65;;;6.70;99.90;;;;;;10357259;28;20491;-88
2021/10/18 23:35:31;;;;;;;23.30;7.80;;;6.60;99.90;;;;;;10359603;28;20045;-88
2021/10/18 23:40:36;;;;;;;18.35;7.97;;;6.70;99.90;;;;;;10370618;28;20049;-89
2021/10/18 23:45:39;;;;;;;21.60;7.95;;;6.70;99.90;;;;;;10363525;28;20050;-89
2021/10/18 23:50:41;;;;;;;21.88;8.35;;;6.60;99.90;;;;;;10333130;28;20057;-89
2021/10/18 23:55:43;;;;;;;21.42;9.02;;;6.70;99.90;;;;;;10346835;28;20435;-89
